Terminal Aerodrome Forecast
Issued by NWS

Home | Current Version | Previous Version | Text Only | Print | Product List | Glossary On
Versions: 1 2 3 4 5 6 7 8 9 10 11 12 13 14 15
000
FTUS46 KLOX 180002 CCA
TAFSBA
TAF COR
KSBA 180002Z 1800/1824 23005KT P6SM BKN250
     FM180400 VRB03KT P6SM BKN250
     FM180700 VRB03KT 6SM BR SCT007 OVC250
     FM181000 10004KT P6SM BKN012 OVC250
     FM181600 10010KT P6SM SCT017 BKN150
     FM182200 12010KT P6SM -SHRA BKN020 BKN040=

USA.gov is the U.S. government's official web portal to all federal, state and local government web resources and services.